Time;durP1;ratioP1;P1;durP2;ratioP2;P2;SDS_P1;SDS_P2;PMS_P1;PMS_P2;Temp;Humidity;BMP_temperature;BMP_pressure;BME280_temperature;BME280_humidity;BME280_pressure;Samples;Min_cycle;Max_cycle;Signal;HPM_P1;HPM_P2
2022/11/20 00:01:10;;;;;;;19.17;15.55;;;2.90;99.90;;;;;;5056902;28;20047;-74
2022/11/20 00:03:36;;;;;;;20.15;16.63;;;1.90;99.90;;;;;;5058603;28;20052;-74
2022/11/20 00:06:03;;;;;;;22.38;16.98;;;1.80;99.90;;;;;;5055415;28;20048;-74
2022/11/20 00:08:29;;;;;;;17.25;13.90;;;1.80;99.90;;;;;;5059631;28;20044;-74
2022/11/20 00:10:54;;;;;;;18.95;14.93;;;1.90;99.90;;;;;;5058951;28;20117;-74
2022/11/20 00:13:20;;;;;;;19.48;16.15;;;2.20;99.90;;;;;;5060932;28;20048;-74
2022/11/20 00:15:46;;;;;;;20.70;15.40;;;2.20;99.90;;;;;;5059301;28;20040;-74
2022/11/20 00:18:11;;;;;;;18.75;14.60;;;2.00;99.90;;;;;;5059432;28;20057;-74
2022/11/20 00:20:37;;;;;;;19.10;14.52;;;2.00;99.90;;;;;;5060354;28;20423;-74
2022/11/20 00:23:03;;;;;;;16.75;13.80;;;2.60;99.90;;;;;;5057683;28;20084;-74
2022/11/20 00:25:28;;;;;;;18.30;14.60;;;1.90;99.90;;;;;;5055534;28;20574;-74
2022/11/20 00:27:54;;;;;;;17.45;14.52;;;1.90;99.90;;;;;;5063710;28;20040;-74
2022/11/20 00:30:20;;;;;;;17.60;14.38;;;2.00;99.90;;;;;;5062846;28;20058;-74
2022/11/20 00:32:45;;;;;;;14.90;12.82;;;2.10;99.90;;;;;;5053647;28;20040;-74
2022/11/20 00:35:11;;;;;;;17.77;14.35;;;2.00;99.90;;;;;;5062230;28;20044;-74
2022/11/20 00:37:36;;;;;;;18.27;14.02;;;2.00;99.90;;;;;;5058734;28;20530;-74
2022/11/20 00:40:02;;;;;;;16.70;13.57;;;2.20;99.90;;;;;;5059653;28;20058;-73
2022/11/20 00:42:28;;;;;;;17.55;13.55;;;2.10;99.90;;;;;;5065343;28;20071;-74
2022/11/20 00:44:54;;;;;;;15.43;13.82;;;2.70;99.90;;;;;;5059446;28;20086;-74
2022/11/20 00:47:19;;;;;;;15.57;12.30;;;2.20;99.90;;;;;;5064628;28;20087;-74
2022/11/20 00:49:45;;;;;;;18.33;12.82;;;2.20;99.90;;;;;;5078672;28;20049;-74
2022/11/20 00:52:11;;;;;;;14.90;13.35;;;2.20;99.90;;;;;;5057671;28;20082;-74
2022/11/20 00:54:36;;;;;;;12.90;11.45;;;2.20;99.90;;;;;;5054658;28;20542;-74
2022/11/20 00:57:02;;;;;;;15.65;13.45;;;2.30;99.90;;;;;;5053558;28;20605;-74
2022/11/20 00:59:28;;;;;;;16.08;12.40;;;2.20;99.90;;;;;;5057952;28;20043;-74
2022/11/20 01:01:53;;;;;;;14.18;10.82;;;3.60;99.90;;;;;;5052728;28;20601;-74
2022/11/20 01:04:19;;;;;;;13.98;10.60;;;2.20;99.90;;;;;;5055864;28;20033;-75
2022/11/20 01:06:44;;;;;;;12.75;10.20;;;2.30;99.90;;;;;;5057076;28;20163;-75
2022/11/20 01:09:13;;;;;;;11.55;9.75;;;2.60;99.90;;;;;;5054726;28;20095;-74
2022/11/20 01:11:41;;;;;;;16.08;11.27;;;2.30;99.90;;;;;;5065815;28;20119;-74
2022/11/20 01:14:18;;;;;;;16.33;10.93;;;2.20;99.90;;;;;;5057313;28;21094;-74
2022/11/20 01:16:49;;;;;;;14.68;11.02;;;2.90;99.90;;;;;;5048712;28;20045;-75
2022/11/20 01:19:21;;;;;;;12.70;10.10;;;2.10;99.90;;;;;;5053733;28;20061;-74
2022/11/20 01:21:50;;;;;;;14.52;10.35;;;2.20;99.90;;;;;;5056741;28;20052;-74
2022/11/20 01:24:18;;;;;;;17.17;11.85;;;3.40;99.90;;;;;;5061090;28;20036;-74
2022/11/20 01:26:46;;;;;;;12.02;9.38;;;2.20;99.90;;;;;;5055791;28;20044;-74
2022/11/20 01:29:23;;;;;;;12.30;9.38;;;2.20;99.90;;;;;;5057601;28;20063;-74
2022/11/20 01:31:49;;;;;;;13.38;9.35;;;2.20;99.90;;;;;;5056535;28;20050;-74
2022/11/20 01:34:19;;;;;;;16.02;10.10;;;3.20;99.90;;;;;;5055645;28;20047;-74
2022/11/20 01:36:46;;;;;;;11.75;9.00;;;3.10;99.90;;;;;;5056541;28;20059;-75
2022/11/20 01:39:18;;;;;;;12.80;10.13;;;2.20;99.90;;;;;;5054167;28;20052;-74
2022/11/20 01:44:49;;;;;;;14.88;9.38;;;3.40;99.90;;;;;;5060268;28;20059;-74
2022/11/20 01:47:22;;;;;;;12.50;10.40;;;2.30;99.90;;;;;;5057333;28;20048;-74
2022/11/20 01:49:54;;;;;;;15.65;10.15;;;2.40;99.90;;;;;;5056336;28;20141;-74
2022/11/20 01:52:24;;;;;;;14.80;11.23;;;2.40;99.90;;;;;;5063549;28;20044;-74
2022/11/20 01:55:13;;;;;;;14.18;10.48;;;2.30;99.90;;;;;;5061580;28;20052;-74
2022/11/20 01:57:39;;;;;;;12.07;9.07;;;2.30;99.90;;;;;;5047878;28;20061;-74
2022/11/20 02:00:13;;;;;;;11.50;9.57;;;2.40;99.90;;;;;;5061606;28;20106;-74
2022/11/20 02:02:42;;;;;;;12.23;9.45;;;2.40;99.90;;;;;;5060242;28;20601;-75
2022/11/20 02:05:17;;;;;;;13.43;10.10;;;2.80;99.90;;;;;;5058254;28;20080;-74
2022/11/20 02:07:44;;;;;;;14.50;10.57;;;3.00;99.90;;;;;;5057505;28;20052;-74
2022/11/20 02:10:10;;;;;;;12.63;8.55;;;2.40;99.90;;;;;;5056979;28;20048;-74
2022/11/20 02:15:20;;;;;;;13.38;9.48;;;2.50;99.90;;;;;;5057160;28;20052;-74
2022/11/20 02:17:46;;;;;;;13.30;9.68;;;2.40;99.90;;;;;;5057823;28;20048;-74
2022/11/20 02:20:12;;;;;;;12.32;9.80;;;2.40;99.90;;;;;;5055905;28;20569;-74
2022/11/20 02:23:10;;;;;;;12.93;10.27;;;2.30;99.90;;;;;;5049270;28;20118;-74
2022/11/20 02:25:37;;;;;;;13.75;9.55;;;2.40;99.90;;;;;;5055660;28;20052;-74
2022/11/20 02:28:04;;;;;;;12.20;8.52;;;2.30;99.90;;;;;;5055963;28;20056;-74
2022/11/20 02:30:30;;;;;;;14.52;10.38;;;2.40;99.90;;;;;;5056453;28;20050;-74
2022/11/20 02:32:57;;;;;;;13.95;10.00;;;2.50;99.90;;;;;;5055843;28;20044;-74
2022/11/20 02:35:22;;;;;;;12.00;8.52;;;2.50;99.90;;;;;;5055849;28;20495;-74
2022/11/20 02:37:52;;;;;;;12.38;9.68;;;3.30;99.90;;;;;;5057832;28;20159;-74
2022/11/20 02:40:18;;;;;;;14.18;10.40;;;2.40;99.90;;;;;;5054581;28;20153;-74
2022/11/20 02:42:44;;;;;;;12.95;9.85;;;2.40;99.90;;;;;;5058008;28;20892;-74
2022/11/20 02:45:10;;;;;;;13.50;10.48;;;2.40;99.90;;;;;;5054098;28;20150;-75
2022/11/20 02:47:35;;;;;;;11.52;8.75;;;2.30;99.90;;;;;;5056779;28;20479;-74
2022/11/20 02:50:01;;;;;;;13.02;10.50;;;2.30;99.90;;;;;;5055176;28;20124;-74
2022/11/20 02:52:27;;;;;;;11.07;8.60;;;2.30;99.90;;;;;;5045907;28;20041;-74
2022/11/20 02:54:53;;;;;;;12.18;8.23;;;2.40;99.90;;;;;;5049678;28;20072;-74
2022/11/20 02:57:18;;;;;;;15.45;11.20;;;2.40;99.90;;;;;;5053325;28;20446;-74
2022/11/20 02:59:44;;;;;;;12.27;9.70;;;2.40;99.90;;;;;;5059040;28;20054;-74
2022/11/20 03:02:10;;;;;;;15.25;10.30;;;2.80;99.90;;;;;;5054744;28;20055;-74
2022/11/20 03:04:35;;;;;;;12.27;8.38;;;2.80;99.90;;;;;;5061447;28;20756;-74
2022/11/20 03:07:01;;;;;;;10.55;8.75;;;2.90;99.90;;;;;;5057413;28;20101;-75
2022/11/20 03:09:27;;;;;;;12.55;8.98;;;3.00;99.90;;;;;;5057510;28;20545;-74
2022/11/20 03:11:52;;;;;;;13.32;9.55;;;2.60;99.90;;;;;;5054558;28;21252;-74
2022/11/20 03:14:18;;;;;;;14.25;9.85;;;2.60;99.90;;;;;;5060527;28;20542;-74
2022/11/20 03:16:44;;;;;;;13.10;11.23;;;2.80;99.90;;;;;;5092794;27;20052;-74
2022/11/20 03:19:11;;;;;;;13.32;10.13;;;3.00;99.90;;;;;;5062853;28;20681;-75
2022/11/20 03:21:37;;;;;;;12.77;9.45;;;2.50;99.90;;;;;;5065149;28;20071;-74
2022/11/20 03:24:03;;;;;;;10.13;7.60;;;2.40;99.90;;;;;;5089616;27;20063;-74
2022/11/20 03:26:29;;;;;;;11.00;8.82;;;2.40;99.90;;;;;;5061366;28;20044;-75
2022/11/20 03:28:57;;;;;;;13.07;9.80;;;2.90;99.90;;;;;;5059531;28;20591;-74
2022/11/20 03:31:32;;;;;;;13.93;10.18;;;2.50;99.90;;;;;;5060408;28;20129;-74
2022/11/20 03:33:58;;;;;;;11.90;9.48;;;2.50;99.90;;;;;;5058592;28;20542;-74
2022/11/20 03:36:25;;;;;;;10.25;8.38;;;2.90;99.90;;;;;;5055664;28;20044;-74
2022/11/20 03:38:54;;;;;;;11.02;8.27;;;2.60;99.90;;;;;;5058958;28;20053;-74
2022/11/20 03:41:25;;;;;;;13.90;8.85;;;3.20;99.90;;;;;;5058744;28;20066;-74
2022/11/20 03:43:53;;;;;;;14.10;9.93;;;2.60;99.90;;;;;;5060520;28;20218;-74
2022/11/20 03:46:19;;;;;;;15.65;10.15;;;3.30;99.90;;;;;;5058548;28;20055;-74
2022/11/20 03:48:45;;;;;;;9.93;8.93;;;2.70;99.90;;;;;;5061513;28;20144;-74
2022/11/20 03:51:22;;;;;;;14.88;10.18;;;2.60;99.90;;;;;;5069304;28;20143;-74
2022/11/20 03:53:50;;;;;;;13.82;10.02;;;2.50;99.90;;;;;;5057839;28;20566;-74
2022/11/20 03:56:18;;;;;;;11.52;9.73;;;2.60;99.90;;;;;;5074589;28;20050;-75
2022/11/20 03:58:44;;;;;;;13.05;9.07;;;2.90;99.90;;;;;;5059564;28;20046;-74
2022/11/20 04:01:10;;;;;;;11.93;10.15;;;2.50;99.90;;;;;;5074474;28;20048;-74
2022/11/20 04:03:36;;;;;;;16.67;10.93;;;3.00;99.90;;;;;;5058321;28;20143;-74
2022/11/20 04:06:10;;;;;;;12.18;9.57;;;2.60;99.90;;;;;;5057973;28;20558;-74
2022/11/20 04:08:35;;;;;;;;;;;2.50;99.90;;;;;;5056805;28;20143;-75
2022/11/20 04:11:22;;;;;;;11.88;8.88;;;2.40;99.90;;;;;;5059199;28;20031;-74
2022/11/20 04:13:50;;;;;;;12.32;10.43;;;2.50;99.90;;;;;;5063936;28;20049;-75
2022/11/20 04:16:16;;;;;;;9.57;8.32;;;3.50;99.90;;;;;;5059800;28;20083;-74
2022/11/20 04:18:43;;;;;;;11.88;8.35;;;3.40;99.90;;;;;;5064195;28;20079;-74
2022/11/20 04:21:09;;;;;;;11.88;8.70;;;2.60;99.90;;;;;;5064472;28;20060;-75
2022/11/20 04:23:35;;;;;;;10.90;8.98;;;2.60;99.90;;;;;;5061562;28;20047;-74
2022/11/20 04:26:06;;;;;;;11.73;9.18;;;2.60;99.90;;;;;;5064211;28;20044;-74
2022/11/20 04:28:32;;;;;;;12.38;9.45;;;2.60;99.90;;;;;;5063943;28;20918;-74
2022/11/20 04:31:09;;;;;;;11.98;8.15;;;2.70;99.90;;;;;;5066044;28;20040;-74
2022/11/20 04:33:36;;;;;;;11.55;8.50;;;2.70;99.90;;;;;;5056385;28;20076;-74
2022/11/20 04:36:04;;;;;;;10.88;8.38;;;3.30;99.90;;;;;;5059051;28;20121;-74
2022/11/20 04:38:30;;;;;;;12.02;9.27;;;2.70;99.90;;;;;;5056277;28;20052;-75
2022/11/20 04:41:00;;;;;;;11.93;9.15;;;2.70;99.90;;;;;;5060860;28;20044;-74
2022/11/20 04:43:27;;;;;;;10.50;8.30;;;2.70;99.90;;;;;;5056175;28;20060;-74
2022/11/20 04:45:57;;;;;;;9.98;8.07;;;3.60;99.90;;;;;;5067919;28;20056;-74
2022/11/20 04:48:23;;;;;;;11.45;9.48;;;2.80;99.90;;;;;;5059266;28;20049;-75
2022/11/20 04:50:48;;;;;;;12.68;9.00;;;2.70;99.90;;;;;;5059710;28;20078;-74
2022/11/20 04:53:14;;;;;;;12.05;9.80;;;2.70;99.90;;;;;;5057550;28;20158;-74
2022/11/20 04:55:40;;;;;;;12.63;9.15;;;2.70;99.90;;;;;;5044899;28;20087;-75
2022/11/20 04:58:06;;;;;;;12.25;9.63;;;2.70;99.90;;;;;;5057177;28;20087;-74
2022/11/20 05:00:31;;;;;;;9.45;8.43;;;2.70;99.90;;;;;;5058360;28;20072;-74
2022/11/20 05:02:57;;;;;;;11.98;8.95;;;2.70;99.90;;;;;;5052644;28;20165;-75
2022/11/20 05:05:23;;;;;;;13.02;8.75;;;3.40;99.90;;;;;;5053442;28;20856;-74
2022/11/20 05:07:48;;;;;;;11.70;8.55;;;2.70;99.90;;;;;;5056046;28;20048;-75
2022/11/20 05:10:14;;;;;;;10.02;8.27;;;2.70;99.90;;;;;;5060258;28;20087;-75
2022/11/20 05:12:40;;;;;;;9.77;8.27;;;2.70;99.90;;;;;;5054943;28;20055;-75
2022/11/20 05:15:06;;;;;;;15.18;9.65;;;2.70;99.90;;;;;;5057399;28;20080;-74
2022/11/20 05:17:32;;;;;;;12.10;8.52;;;2.70;99.90;;;;;;5060074;28;20412;-75
2022/11/20 05:19:57;;;;;;;11.65;8.77;;;2.70;99.90;;;;;;5066368;28;20072;-74
2022/11/20 05:22:23;;;;;;;11.50;9.43;;;2.70;99.90;;;;;;5058469;28;20053;-75
2022/11/20 05:24:49;;;;;;;13.98;10.20;;;2.70;99.90;;;;;;5083303;27;20076;-74
2022/11/20 05:27:14;;;;;;;12.73;9.40;;;2.70;99.90;;;;;;5059421;28;20051;-74
2022/11/20 05:29:40;;;;;;;10.48;8.90;;;2.70;99.90;;;;;;5056845;28;20048;-74
2022/11/20 05:32:08;;;;;;;13.00;9.63;;;2.70;99.90;;;;;;5056285;28;20098;-75
2022/11/20 05:34:34;;;;;;;11.40;8.77;;;2.80;99.90;;;;;;5059911;28;20056;-74
2022/11/20 05:37:00;;;;;;;10.55;8.02;;;2.60;99.90;;;;;;5069125;28;20495;-74
2022/11/20 05:39:25;;;;;;;11.05;8.10;;;2.60;99.90;;;;;;5065979;28;20832;-74
2022/11/20 05:42:29;;;;;;;12.13;8.52;;;2.70;99.90;;;;;;5065578;28;20049;-74
2022/11/20 05:44:36;;;;;;;10.07;8.57;;;2.70;99.90;;;;;;5064933;28;20388;-74
2022/11/20 05:47:02;;;;;;;13.25;9.55;;;2.70;99.90;;;;;;5058153;28;20055;-75
2022/11/20 05:49:28;;;;;;;11.93;8.57;;;2.70;99.90;;;;;;5057291;28;20040;-74
2022/11/20 05:51:53;;;;;;;12.38;9.70;;;2.70;99.90;;;;;;5057901;28;20541;-75
2022/11/20 05:54:19;;;;;;;11.10;8.23;;;3.50;99.90;;;;;;5056973;28;20131;-74
2022/11/20 05:56:44;;;;;;;11.20;8.60;;;2.50;99.90;;;;;;5056922;28;20563;-74
2022/11/20 05:59:10;;;;;;;10.45;8.65;;;3.40;99.90;;;;;;5066795;28;20288;-74
2022/11/20 06:01:36;;;;;;;14.82;9.85;;;2.90;99.90;;;;;;5058024;28;20053;-75
2022/11/20 06:04:02;;;;;;;13.77;10.55;;;3.20;99.90;;;;;;5057620;28;20044;-74
2022/11/20 06:06:27;;;;;;;11.85;8.68;;;2.80;99.90;;;;;;5054946;28;20052;-74
2022/11/20 06:08:55;;;;;;;12.38;8.60;;;2.80;99.90;;;;;;5057010;28;20048;-74
2022/11/20 06:11:20;;;;;;;8.55;7.65;;;3.30;99.90;;;;;;5056291;28;20124;-75
2022/11/20 06:13:47;;;;;;;11.02;8.68;;;2.80;99.90;;;;;;5056984;28;20106;-75
2022/11/20 06:16:15;;;;;;;9.38;7.38;;;2.80;99.90;;;;;;5058210;28;20051;-74
2022/11/20 06:18:41;;;;;;;10.90;8.23;;;2.80;99.90;;;;;;5072742;28;20056;-75
2022/11/20 06:21:16;;;;;;;11.05;8.95;;;2.70;99.90;;;;;;5057530;28;20071;-74
2022/11/20 06:23:42;;;;;;;10.52;7.82;;;2.70;99.90;;;;;;5057250;28;20180;-75
2022/11/20 06:26:29;;;;;;;12.07;8.65;;;3.30;99.90;;;;;;5057061;28;20419;-75
2022/11/20 06:28:55;;;;;;;10.98;8.35;;;2.70;99.90;;;;;;5056053;28;20230;-75
2022/11/20 06:31:23;;;;;;;10.48;7.97;;;3.00;99.90;;;;;;5058680;28;20060;-75
2022/11/20 06:33:49;;;;;;;9.25;7.90;;;2.70;99.90;;;;;;5056425;28;20032;-74
2022/11/20 06:36:16;;;;;;;11.88;9.95;;;3.20;99.90;;;;;;5061021;28;20056;-75
2022/11/20 06:38:43;;;;;;;7.22;6.43;;;3.00;99.90;;;;;;5061861;28;20052;-75
2022/11/20 06:41:14;;;;;;;10.35;7.63;;;2.70;99.90;;;;;;5061749;28;20051;-75
2022/11/20 06:43:40;;;;;;;10.55;8.43;;;3.90;99.90;;;;;;5059654;28;20052;-74
2022/11/20 06:46:05;;;;;;;9.00;7.80;;;2.70;99.90;;;;;;5061320;28;20079;-75
2022/11/20 06:48:32;;;;;;;10.18;8.07;;;2.90;99.90;;;;;;5073061;28;20851;-75
2022/11/20 06:50:58;;;;;;;10.45;8.40;;;3.20;99.90;;;;;;5062830;28;20048;-75
2022/11/20 06:53:24;;;;;;;10.70;7.53;;;2.80;99.90;;;;;;5060388;28;20052;-75
2022/11/20 06:55:51;;;;;;;8.90;6.85;;;2.80;99.90;;;;;;5067683;28;20041;-75
2022/11/20 06:58:17;;;;;;;9.43;6.60;;;2.80;99.90;;;;;;5060014;28;20056;-75
2022/11/20 07:00:43;;;;;;;13.23;7.40;;;2.80;99.90;;;;;;5061556;28;20052;-75
2022/11/20 07:03:10;;;;;;;10.70;8.15;;;2.80;99.90;;;;;;5062799;28;20166;-74
2022/11/20 07:05:36;;;;;;;11.45;9.02;;;2.80;99.90;;;;;;5056492;28;20151;-75
2022/11/20 07:08:03;;;;;;;11.20;8.55;;;3.50;99.90;;;;;;5060232;28;20049;-75
2022/11/20 07:10:28;;;;;;;9.48;7.50;;;2.70;99.90;;;;;;5059648;28;20059;-75
2022/11/20 07:12:54;;;;;;;10.80;7.35;;;3.10;99.90;;;;;;5057252;28;20040;-75
2022/11/20 07:15:22;;;;;;;11.57;9.20;;;2.70;99.90;;;;;;5069999;28;20125;-76
2022/11/20 07:17:48;;;;;;;11.63;8.30;;;3.30;99.90;;;;;;5060250;28;20048;-75
2022/11/20 07:20:15;;;;;;;12.23;8.25;;;2.80;99.90;;;;;;5059883;28;20056;-75
2022/11/20 07:22:41;;;;;;;11.07;8.30;;;2.80;99.90;;;;;;5091569;27;20427;-75
2022/11/20 07:25:08;;;;;;;9.73;8.18;;;3.50;99.90;;;;;;5060314;28;20542;-75
2022/11/20 07:27:34;;;;;;;10.02;8.05;;;2.80;99.90;;;;;;5063952;28;20634;-75
2022/11/20 07:30:00;;;;;;;10.32;9.02;;;3.10;99.90;;;;;;5065673;28;20117;-75
2022/11/20 07:32:25;;;;;;;13.40;9.10;;;3.60;99.90;;;;;;5060097;28;20044;-76
2022/11/20 07:34:51;;;;;;;9.93;8.43;;;2.70;99.90;;;;;;5060785;28;20396;-75
2022/11/20 07:37:17;;;;;;;9.25;8.23;;;2.70;99.90;;;;;;5059409;28;20102;-75
2022/11/20 07:39:43;;;;;;;12.18;8.75;;;3.50;99.90;;;;;;5062107;28;20511;-76
2022/11/20 07:42:09;;;;;;;11.70;8.43;;;3.00;99.90;;;;;;5060016;28;20048;-77
2022/11/20 07:44:35;;;;;;;11.55;8.27;;;2.80;99.90;;;;;;5059899;28;20040;-75
2022/11/20 07:47:02;;;;;;;13.77;9.40;;;3.10;99.90;;;;;;5059134;28;20776;-77
2022/11/20 07:49:28;;;;;;;13.07;9.27;;;2.90;99.90;;;;;;5061801;28;20162;-77
2022/11/20 07:51:54;;;;;;;9.32;7.93;;;2.80;99.90;;;;;;5059218;28;20056;-77
2022/11/20 07:54:20;;;;;;;10.20;9.02;;;3.90;99.90;;;;;;5061899;28;20040;-77
2022/11/20 07:56:47;;;;;;;11.02;8.00;;;3.40;99.90;;;;;;5059093;28;20048;-76
2022/11/20 07:59:13;;;;;;;11.35;9.15;;;2.80;99.90;;;;;;5058536;28;20131;-77
2022/11/20 08:01:41;;;;;;;11.55;8.50;;;3.40;99.90;;;;;;5055138;28;20051;-77
2022/11/20 08:04:06;;;;;;;10.65;7.78;;;2.80;99.90;;;;;;5097393;27;20044;-77
2022/11/20 08:06:32;;;;;;;11.27;8.32;;;2.80;99.90;;;;;;5061988;28;20058;-77
2022/11/20 08:08:58;;;;;;;9.75;7.45;;;3.40;99.90;;;;;;5057932;28;20524;-77
2022/11/20 08:14:11;;;;;;;10.18;7.68;;;2.90;99.90;;;;;;5059428;28;20040;-76
2022/11/20 08:16:42;;;;;;;10.27;8.07;;;3.00;99.90;;;;;;5055294;28;20269;-77
2022/11/20 08:19:08;;;;;;;9.85;8.18;;;3.10;99.90;;;;;;5062379;28;20047;-77
2022/11/20 08:21:33;;;;;;;9.93;8.15;;;3.10;99.90;;;;;;5067341;28;20052;-77
2022/11/20 08:23:59;;;;;;;9.00;7.93;;;3.20;99.90;;;;;;5059443;28;20079;-77
2022/11/20 08:26:26;;;;;;;10.38;7.90;;;3.20;99.90;;;;;;5065658;28;20046;-76
2022/11/20 08:28:56;;;;;;;14.18;9.15;;;3.70;99.90;;;;;;5068190;28;20127;-77
2022/11/20 08:31:23;;;;;;;9.95;7.63;;;3.20;99.90;;;;;;5057918;28;20057;-77
2022/11/20 08:33:49;;;;;;;9.82;7.57;;;3.70;99.90;;;;;;5063203;28;20047;-77
2022/11/20 08:36:14;;;;;;;10.77;8.43;;;3.60;99.90;;;;;;5069550;28;20554;-76
2022/11/20 08:38:40;;;;;;;10.48;8.00;;;3.20;99.90;;;;;;5063502;28;20051;-77
2022/11/20 08:41:26;;;;;;;9.80;8.10;;;3.40;99.90;;;;;;5056389;28;20484;-76
2022/11/20 08:43:57;;;;;;;11.18;8.65;;;3.20;99.90;;;;;;5053734;28;20123;-77
2022/11/20 08:46:25;;;;;;;12.38;9.88;;;3.20;99.90;;;;;;5061459;28;20048;-77
2022/11/20 08:48:51;;;;;;;7.95;7.15;;;3.70;99.90;;;;;;5056313;28;20044;-77
2022/11/20 08:51:17;;;;;;;10.98;8.35;;;3.40;99.90;;;;;;5058014;28;20048;-77
2022/11/20 08:53:43;;;;;;;12.63;8.85;;;3.20;99.90;;;;;;5066570;28;20055;-77
2022/11/20 08:56:09;;;;;;;10.85;7.65;;;3.20;99.90;;;;;;5055504;28;20040;-77
2022/11/20 08:58:35;;;;;;;9.13;8.20;;;3.30;99.90;;;;;;5055717;28;20084;-76
2022/11/20 09:01:01;;;;;;;11.52;7.95;;;3.20;99.90;;;;;;5065932;28;20054;-77
2022/11/20 09:03:27;;;;;;;11.25;8.50;;;3.80;99.90;;;;;;5066057;28;20040;-78
2022/11/20 09:06:05;;;;;;;11.43;8.90;;;3.50;99.90;;;;;;5072089;28;20395;-77
2022/11/20 09:08:30;;;;;;;7.82;7.00;;;3.30;99.90;;;;;;5056775;28;20059;-77
2022/11/20 09:10:58;;;;;;;8.45;6.35;;;3.40;99.90;;;;;;5055003;28;20048;-77
2022/11/20 09:13:25;;;;;;;10.32;7.78;;;4.00;99.90;;;;;;5066498;28;20141;-77
2022/11/20 09:16:03;;;;;;;9.52;7.45;;;3.40;99.90;;;;;;5062582;28;20052;-76
2022/11/20 09:18:31;;;;;;;8.93;7.40;;;3.40;99.90;;;;;;5055657;28;20181;-75
2022/11/20 09:20:58;;;;;;;9.27;7.20;;;3.30;99.90;;;;;;5055983;28;20052;-77
2022/11/20 09:23:24;;;;;;;7.38;6.05;;;3.60;99.90;;;;;;5057871;28;20051;-77
2022/11/20 09:25:50;;;;;;;11.30;7.70;;;4.60;99.90;;;;;;5060896;28;20056;-77
2022/11/20 09:28:18;;;;;;;9.95;7.97;;;3.40;99.90;;;;;;5059150;28;20040;-77
2022/11/20 09:30:44;;;;;;;10.43;7.95;;;3.50;99.90;;;;;;5064021;28;20080;-78
2022/11/20 09:33:09;;;;;;;15.68;8.60;;;3.90;99.90;;;;;;5064402;28;20330;-76
2022/11/20 09:35:35;;;;;;;9.57;6.97;;;3.50;99.90;;;;;;5067567;28;20044;-77
2022/11/20 09:38:06;;;;;;;10.43;7.30;;;4.70;99.90;;;;;;5063827;28;20754;-78
2022/11/20 09:40:34;;;;;;;10.38;8.38;;;3.50;99.90;;;;;;5060347;28;20052;-78
2022/11/20 09:43:08;;;;;;;11.02;7.05;;;5.10;99.90;;;;;;5058181;28;20052;-78
2022/11/20 09:46:00;;;;;;;12.05;7.60;;;3.60;99.90;;;;;;5070761;28;20134;-78
2022/11/20 09:48:31;;;;;;;9.15;6.75;;;3.60;99.90;;;;;;5065904;28;20374;-78
2022/11/20 09:51:13;;;;;;;9.52;7.82;;;3.70;99.90;;;;;;5066927;28;20121;-79
2022/11/20 09:54:01;;;;;;;10.30;7.87;;;4.60;99.90;;;;;;5044568;28;20048;-80
2022/11/20 09:56:28;;;;;;;10.52;7.15;;;3.80;99.90;;;;;;5065736;28;20130;-78
2022/11/20 09:59:02;;;;;;;9.93;6.22;;;3.90;99.90;;;;;;5057500;28;20057;-79
2022/11/20 10:01:36;;;;;;;9.32;6.60;;;3.90;99.90;;;;;;5062010;28;20036;-78
2022/11/20 10:04:03;;;;;;;11.60;7.22;;;3.90;99.90;;;;;;5061411;28;20108;-79
2022/11/20 10:06:52;;;;;;;8.25;6.38;;;4.90;99.90;;;;;;5056457;28;20785;-80
2022/11/20 10:09:50;;;;;;;8.50;6.50;;;3.90;99.90;;;;;;5043778;28;20040;-78
2022/11/20 10:12:18;;;;;;;8.00;6.35;;;3.80;99.90;;;;;;5059697;28;20059;-80
2022/11/20 10:15:07;;;;;;;8.77;7.07;;;4.10;99.90;;;;;;5059909;28;20561;-79
2022/11/20 10:17:53;;;;;;;11.65;6.90;;;2.90;99.90;;;;;;5049509;28;20098;-79
2022/11/20 10:20:51;;;;;;;10.05;7.45;;;3.90;99.90;;;;;;5058066;28;20166;-80
2022/11/20 10:23:43;;;;;;;9.70;7.70;;;3.90;99.90;;;;;;5059718;28;20071;-79
2022/11/20 10:26:32;;;;;;;10.32;7.72;;;4.30;99.90;;;;;;5057356;28;20064;-80
2022/11/20 10:29:16;;;;;;;10.10;7.78;;;4.00;99.90;;;;;;5061143;28;20106;-79
2022/11/20 10:31:54;;;;;;;10.50;8.82;;;4.00;99.90;;;;;;5058751;28;20060;-82
2022/11/20 10:34:46;;;;;;;9.82;7.60;;;4.00;99.90;;;;;;5060654;28;20072;-79
2022/11/20 10:37:23;;;;;;;9.02;6.85;;;3.90;99.90;;;;;;5068720;28;20044;-79
2022/11/20 10:39:56;;;;;;;10.75;7.50;;;4.00;99.90;;;;;;5072620;28;20097;-81
2022/11/20 10:42:36;;;;;;;6.57;5.88;;;4.10;99.90;;;;;;5063364;28;20056;-79
2022/11/20 10:45:31;;;;;;;6.90;5.97;;;4.20;99.90;;;;;;5059680;28;20083;-78
2022/11/20 10:48:07;;;;;;;8.65;6.53;;;4.20;99.90;;;;;;5062695;28;20051;-81
2022/11/20 10:50:35;;;;;;;9.10;7.30;;;4.20;99.90;;;;;;5065059;28;20122;-79
2022/11/20 10:53:22;;;;;;;8.57;5.72;;;4.20;99.90;;;;;;5058704;28;20048;-78
2022/11/20 10:56:04;;;;;;;10.30;6.93;;;4.20;99.90;;;;;;5070186;28;20062;-79
2022/11/20 10:59:02;;;;;;;7.78;5.65;;;4.30;99.90;;;;;;5049019;28;20059;-79
2022/11/20 11:01:28;;;;;;;6.50;5.63;;;4.30;99.90;;;;;;5059489;28;21306;-81
2022/11/20 11:03:55;;;;;;;8.02;5.75;;;4.30;99.90;;;;;;5059737;28;20044;-81
2022/11/20 11:06:28;;;;;;;9.32;6.20;;;4.30;99.90;;;;;;5060939;28;20044;-81
2022/11/20 11:08:58;;;;;;;7.22;5.90;;;4.30;99.90;;;;;;5057624;28;20253;-81
2022/11/20 11:11:27;;;;;;;9.90;6.20;;;4.30;99.90;;;;;;5059657;28;20539;-82
2022/11/20 11:13:53;;;;;;;8.00;5.70;;;4.80;99.90;;;;;;5068433;28;20048;-79
2022/11/20 11:16:24;;;;;;;7.90;5.80;;;4.40;99.90;;;;;;5056304;28;20117;-81
2022/11/20 11:18:51;;;;;;;7.20;5.40;;;4.40;99.90;;;;;;5054846;28;20147;-80
2022/11/20 11:21:26;;;;;;;6.07;5.18;;;4.40;99.90;;;;;;5061089;28;20058;-82
2022/11/20 11:24:01;;;;;;;6.72;5.20;;;4.40;99.90;;;;;;5058434;28;20123;-79
2022/11/20 11:26:27;;;;;;;8.07;6.15;;;4.80;99.90;;;;;;5068507;28;20317;-80
2022/11/20 11:29:01;;;;;;;7.28;5.65;;;4.40;99.90;;;;;;5056958;28;20040;-82
2022/11/20 11:31:29;;;;;;;8.60;6.20;;;4.30;99.90;;;;;;5066256;28;20050;-82
2022/11/20 11:34:05;;;;;;;6.38;5.45;;;4.30;99.90;;;;;;5062403;28;20113;-81
2022/11/20 11:36:33;;;;;;;7.60;5.13;;;4.60;99.90;;;;;;5064752;28;20115;-82
2022/11/20 11:38:58;;;;;;;6.68;5.43;;;4.30;99.90;;;;;;5058525;28;20087;-79
2022/11/20 11:41:31;;;;;;;7.32;4.95;;;4.30;99.90;;;;;;5072404;28;20147;-81
2022/11/20 11:46:54;;;;;;;7.22;5.25;;;4.40;99.90;;;;;;5056219;28;20060;-81
2022/11/20 11:49:20;;;;;;;7.63;6.63;;;3.70;99.90;;;;;;5056005;28;20139;-81
2022/11/20 11:52:05;;;;;;;7.82;6.03;;;4.60;99.90;;;;;;5058330;28;20140;-80
2022/11/20 11:54:42;;;;;;;7.95;5.70;;;4.60;99.90;;;;;;5055612;28;20218;-81
2022/11/20 11:57:32;;;;;;;6.78;4.78;;;4.60;99.90;;;;;;5066744;28;20070;-80
2022/11/20 12:00:17;;;;;;;8.65;5.55;;;4.60;99.90;;;;;;5062173;28;20049;-81
2022/11/20 12:02:48;;;;;;;5.68;5.05;;;4.50;99.90;;;;;;5060488;28;20059;-79
2022/11/20 12:05:19;;;;;;;6.60;4.75;;;4.80;99.90;;;;;;5061906;28;20051;-80
2022/11/20 12:07:58;;;;;;;7.03;5.60;;;4.40;99.90;;;;;;5059186;28;20587;-80
2022/11/20 12:10:33;;;;;;;6.03;4.82;;;4.40;99.90;;;;;;5060799;28;20068;-81
2022/11/20 12:13:11;;;;;;;5.47;4.95;;;4.40;99.90;;;;;;5060441;28;20044;-80
2022/11/20 12:15:42;;;;;;;6.07;4.85;;;5.10;99.90;;;;;;5058899;28;20048;-81
2022/11/20 12:18:21;;;;;;;5.20;4.85;;;4.40;99.90;;;;;;5058124;28;20052;-81
2022/11/20 12:21:06;;;;;;;5.05;4.47;;;4.40;99.90;;;;;;5060032;28;20593;-80
2022/11/20 12:24:03;;;;;;;7.53;4.28;;;4.50;99.90;;;;;;5051299;28;20052;-80
2022/11/20 12:26:47;;;;;;;5.97;4.47;;;4.60;99.90;;;;;;5056151;28;20051;-80
2022/11/20 12:29:33;;;;;;;6.25;3.90;;;5.10;99.90;;;;;;5061863;28;20059;-81
2022/11/20 12:32:13;;;;;;;7.38;4.55;;;4.80;99.90;;;;;;5049898;28;20080;-79
2022/11/20 12:35:04;;;;;;;5.43;4.30;;;4.90;99.90;;;;;;5059460;28;20055;-81
2022/11/20 12:37:57;;;;;;;6.57;4.22;;;4.90;99.90;;;;;;5062474;28;20470;-80
2022/11/20 12:40:34;;;;;;;5.15;4.60;;;5.40;99.90;;;;;;5056398;28;20076;-80
2022/11/20 12:46:13;;;;;;;4.45;3.58;;;5.20;99.90;;;;;;5060014;28;20109;-81
2022/11/20 12:48:48;;;;;;;5.38;3.83;;;5.20;99.90;;;;;;5059401;28;20059;-79
2022/11/20 12:51:43;;;;;;;6.13;4.20;;;5.40;99.90;;;;;;5062939;28;20134;-80
2022/11/20 12:54:20;;;;;;;4.63;3.60;;;5.30;99.90;;;;;;5064640;28;20048;-81
2022/11/20 12:57:09;;;;;;;6.90;4.68;;;5.10;99.90;;;;;;5059950;28;20051;-80
2022/11/20 12:59:58;;;;;;;6.07;4.20;;;5.70;99.90;;;;;;5064613;28;20040;-78
2022/11/20 13:02:41;;;;;;;7.10;5.18;;;5.00;99.90;;;;;;5077375;28;20052;-78
2022/11/20 13:05:20;;;;;;;7.78;5.32;;;5.40;99.90;;;;;;5067572;28;20044;-79
2022/11/20 13:07:50;;;;;;;5.80;4.95;;;4.90;99.90;;;;;;5068720;28;20051;-79
2022/11/20 13:10:35;;;;;;;7.72;5.55;;;4.80;99.90;;;;;;5066703;28;20055;-79
2022/11/20 13:13:42;;;;;;;5.28;4.55;;;4.80;99.90;;;;;;5057596;28;20112;-79
2022/11/20 13:16:25;;;;;;;5.63;4.70;;;4.80;99.90;;;;;;5052524;28;20040;-79
2022/11/20 13:18:51;;;;;;;7.30;5.53;;;4.90;99.90;;;;;;5057422;28;20138;-80